createdAt,value
2023-03-16T00:02:05.199Z,10.00
2023-03-16T00:04:40.617Z,10.90
2023-03-16T00:07:14.166Z,10.50
2023-03-16T00:09:47.597Z,10.90
2023-03-16T00:12:22.933Z,10.00
2023-03-16T00:14:57.451Z,11.30
2023-03-16T00:17:30.284Z,10.60
2023-03-16T00:20:07.257Z,11.00
2023-03-16T00:22:42.211Z,11.10
2023-03-16T00:25:15.842Z,11.60
2023-03-16T00:27:48.802Z,10.30
2023-03-16T00:30:23.189Z,13.20
2023-03-16T00:32:56.114Z,11.00
2023-03-16T00:35:29.356Z,11.50
2023-03-16T00:38:04.925Z,9.90
2023-03-16T00:40:38.009Z,12.30
2023-03-16T00:43:10.920Z,11.10
2023-03-16T00:45:45.245Z,10.20
2023-03-16T00:48:18.745Z,10.50
2023-03-16T00:50:54.668Z,10.50
2023-03-16T00:53:27.658Z,11.50
2023-03-16T00:56:00.536Z,11.20
2023-03-16T00:58:36.120Z,10.90
2023-03-16T01:01:10.255Z,11.00
2023-03-16T01:03:43.776Z,11.70
2023-03-16T01:06:18.275Z,11.20
2023-03-16T01:08:52.673Z,11.40
2023-03-16T01:11:25.817Z,13.00
2023-03-16T01:13:58.752Z,11.80
2023-03-16T01:16:34.134Z,11.50
2023-03-16T01:19:09.194Z,12.00
2023-03-16T01:21:43.933Z,11.80
2023-03-16T01:24:17.775Z,11.70
2023-03-16T01:26:50.813Z,13.40
2023-03-16T01:29:23.720Z,12.70
2023-03-16T01:31:58.059Z,12.40
2023-03-16T01:34:30.924Z,12.90
2023-03-16T01:37:03.980Z,12.20
2023-03-16T01:39:48.031Z,13.70
2023-03-16T01:42:21.857Z,13.40
2023-03-16T01:44:56.786Z,13.40
2023-03-16T01:47:38.476Z,13.10
2023-03-16T01:50:13.849Z,11.90
2023-03-16T01:52:49.223Z,14.70
2023-03-16T01:55:22.778Z,12.70
2023-03-16T01:57:55.574Z,13.80
2023-03-16T02:00:32.312Z,13.90
2023-03-16T02:03:20.227Z,15.50
2023-03-16T02:05:58.046Z,14.00
2023-03-16T02:08:31.860Z,13.40
2023-03-16T02:11:05.066Z,15.00
2023-03-16T02:13:52.954Z,14.80
2023-03-16T02:16:26.368Z,14.80
2023-03-16T02:18:58.982Z,12.80
2023-03-16T02:21:35.369Z,14.60
2023-03-16T02:24:09.544Z,15.40
2023-03-16T02:26:46.000Z,15.20
2023-03-16T02:29:29.956Z,13.60
2023-03-16T02:32:03.169Z,14.80
2023-03-16T02:34:35.909Z,14.30
2023-03-16T02:37:10.475Z,14.80
2023-03-16T02:39:45.898Z,13.60
2023-03-16T02:42:23.331Z,14.00
2023-03-16T02:44:57.812Z,14.10
2023-03-16T02:47:37.157Z,15.50
2023-03-16T02:50:12.667Z,15.20
2023-03-16T02:52:48.236Z,15.90
2023-03-16T02:55:26.451Z,13.20
2023-03-16T02:57:59.392Z,13.30
2023-03-16T03:00:32.490Z,13.30
2023-03-16T03:03:06.677Z,12.80
2023-03-16T03:05:39.720Z,16.80
2023-03-16T03:08:13.826Z,14.80
2023-03-16T03:10:48.835Z,13.00
2023-03-16T03:13:21.706Z,14.50
2023-03-16T03:15:56.103Z,14.60
2023-03-16T03:18:31.145Z,15.60
2023-03-16T03:21:07.545Z,13.90
2023-03-16T03:23:41.963Z,13.00
2023-03-16T03:26:15.881Z,14.50
2023-03-16T03:28:52.906Z,13.60
2023-03-16T03:31:26.111Z,15.50
2023-03-16T03:33:59.240Z,16.00
2023-03-16T03:36:32.104Z,15.30
2023-03-16T03:39:07.277Z,16.10
2023-03-16T03:41:41.482Z,15.90
2023-03-16T03:44:15.572Z,16.50
2023-03-16T03:46:49.838Z,16.60
2023-03-16T03:49:22.991Z,16.10
2023-03-16T03:51:55.863Z,16.20
2023-03-16T03:54:32.476Z,16.20
2023-03-16T03:57:10.491Z,15.80
2023-03-16T03:59:46.197Z,16.80
2023-03-16T04:02:39.904Z,16.30
2023-03-16T04:05:19.108Z,16.60
2023-03-16T04:07:55.669Z,16.10
2023-03-16T04:10:29.377Z,17.40
2023-03-16T04:13:03.106Z,16.40
2023-03-16T04:15:39.541Z,17.30
2023-03-16T04:18:22.338Z,17.40
2023-03-16T04:20:55.913Z,16.40
2023-03-16T04:23:29.371Z,16.50
2023-03-16T04:26:02.761Z,15.10
2023-03-16T04:28:36.644Z,17.20
2023-03-16T04:31:11.100Z,16.00
2023-03-16T04:33:48.916Z,16.80
2023-03-16T04:36:24.444Z,16.00
2023-03-16T04:38:58.534Z,15.80
2023-03-16T04:41:32.030Z,16.10
2023-03-16T04:44:18.245Z,16.70
2023-03-16T04:46:51.205Z,16.70
2023-03-16T04:49:26.929Z,18.60
2023-03-16T04:51:59.885Z,18.60
2023-03-16T04:54:33.589Z,18.80
2023-03-16T04:57:09.922Z,18.90
2023-03-16T04:59:55.232Z,17.10
2023-03-16T05:02:33.096Z,16.60
2023-03-16T05:05:07.246Z,17.40
2023-03-16T05:07:56.056Z,18.90
2023-03-16T05:10:30.169Z,15.80
2023-03-16T05:13:03.736Z,15.70
2023-03-16T05:15:37.419Z,16.00
2023-03-16T05:18:40.186Z,14.10
2023-03-16T05:21:13.893Z,15.00
2023-03-16T05:24:07.958Z,15.10
2023-03-16T05:26:41.434Z,16.40
2023-03-16T05:29:16.986Z,17.80
2023-03-16T05:31:51.147Z,20.80
2023-03-16T05:34:27.841Z,18.70
2023-03-16T05:37:00.650Z,19.80
2023-03-16T05:39:34.746Z,24.30
2023-03-16T05:42:08.061Z,19.40
2023-03-16T05:44:48.190Z,21.20
2023-03-16T05:47:27.463Z,23.20
2023-03-16T05:50:02.967Z,24.40
2023-03-16T05:52:39.542Z,24.30
2023-03-16T05:55:18.685Z,21.60
2023-03-16T05:57:55.647Z,21.00
2023-03-16T06:00:30.210Z,17.70
2023-03-16T06:03:14.382Z,19.50
2023-03-16T06:05:47.114Z,21.20
2023-03-16T06:08:21.323Z,19.40
2023-03-16T06:10:55.963Z,19.80
2023-03-16T06:13:29.722Z,18.70
2023-03-16T06:16:03.228Z,17.50
2023-03-16T06:18:36.741Z,19.40
2023-03-16T06:21:10.458Z,19.00
2023-03-16T06:23:44.113Z,19.80
2023-03-16T06:26:19.157Z,18.60
2023-03-16T06:28:52.785Z,18.90
2023-03-16T06:31:26.389Z,19.00
2023-03-16T06:33:59.667Z,18.60
2023-03-16T06:36:39.230Z,21.50
2023-03-16T06:39:15.800Z,21.90
2023-03-16T06:41:52.149Z,20.30
2023-03-16T06:44:28.016Z,19.60
2023-03-16T06:47:14.519Z,18.90
2023-03-16T06:49:48.218Z,19.40
2023-03-16T06:52:25.322Z,18.60
2023-03-16T06:55:00.832Z,20.30
2023-03-16T06:57:34.630Z,18.50
2023-03-16T07:00:09.894Z,18.90
2023-03-16T07:02:44.307Z,21.10
2023-03-16T07:05:18.525Z,19.30
2023-03-16T07:07:52.699Z,19.80
2023-03-16T07:10:27.283Z,18.40
2023-03-16T07:13:00.895Z,17.70
2023-03-16T07:15:39.463Z,18.40
2023-03-16T07:18:13.464Z,18.20
2023-03-16T07:20:46.928Z,19.00
2023-03-16T07:23:21.191Z,19.30
2023-03-16T07:25:54.366Z,22.00
2023-03-16T07:28:30.448Z,19.50
2023-03-16T07:31:05.153Z,17.90
2023-03-16T07:33:44.674Z,18.60
2023-03-16T07:36:20.801Z,19.60
2023-03-16T07:38:59.054Z,17.90
2023-03-16T07:41:32.770Z,18.00
2023-03-16T07:44:19.587Z,19.10
2023-03-16T07:46:57.839Z,19.40
2023-03-16T07:49:32.539Z,19.00
2023-03-16T07:52:06.227Z,16.60
2023-03-16T07:54:45.460Z,19.40
2023-03-16T07:57:19.068Z,17.40
2023-03-16T07:59:53.560Z,17.20
2023-03-16T08:02:26.432Z,16.10
2023-03-16T08:05:00.472Z,17.80
2023-03-16T08:07:34.593Z,16.90
2023-03-16T08:10:14.016Z,17.30
2023-03-16T08:12:59.433Z,18.60
2023-03-16T08:15:34.067Z,19.90
2023-03-16T08:18:12.898Z,20.60
2023-03-16T08:20:48.065Z,21.40
2023-03-16T08:23:21.565Z,20.80
2023-03-16T08:25:56.362Z,21.90
2023-03-16T08:28:32.265Z,22.70
2023-03-16T08:31:08.310Z,23.60
2023-03-16T08:33:52.106Z,22.00
2023-03-16T08:36:28.901Z,22.60
2023-03-16T08:39:11.007Z,18.60
2023-03-16T08:41:51.391Z,18.40
2023-03-16T08:44:36.587Z,17.00
2023-03-16T08:47:10.869Z,18.10
2023-03-16T08:49:44.995Z,19.10
2023-03-16T08:52:21.232Z,19.30
2023-03-16T08:55:03.010Z,22.10
2023-03-16T08:57:37.750Z,21.40
2023-03-16T09:00:15.804Z,23.10
2023-03-16T09:02:48.848Z,24.30
2023-03-16T09:05:21.992Z,22.60
2023-03-16T09:07:54.994Z,21.90
2023-03-16T09:10:30.616Z,21.50
2023-03-16T09:13:05.215Z,22.00
2023-03-16T09:15:39.084Z,23.30
2023-03-16T09:18:13.893Z,23.20
2023-03-16T09:20:48.057Z,23.20
2023-03-16T09:23:22.282Z,22.60
2023-03-16T09:25:58.038Z,24.00
2023-03-16T09:28:31.713Z,23.90
2023-03-16T09:31:07.415Z,20.80
2023-03-16T09:33:40.367Z,22.40
2023-03-16T09:36:17.871Z,22.90
2023-03-16T09:38:50.829Z,24.60
2023-03-16T09:41:32.674Z,24.40
2023-03-16T09:44:11.302Z,24.30
2023-03-16T09:46:45.744Z,22.20
2023-03-16T09:49:22.449Z,19.50
2023-03-16T09:52:00.578Z,20.90
2023-03-16T09:54:39.430Z,20.40
2023-03-16T09:57:16.405Z,21.60
2023-03-16T09:59:50.682Z,19.90
2023-03-16T10:02:46.783Z,19.90
2023-03-16T10:05:21.857Z,19.90
2023-03-16T10:07:59.638Z,21.70
2023-03-16T10:10:41.310Z,22.40
2023-03-16T10:13:19.138Z,21.20
2023-03-16T10:15:52.799Z,19.80
2023-03-16T10:18:28.513Z,19.30
2023-03-16T10:21:01.516Z,19.70
2023-03-16T10:23:35.992Z,21.70
2023-03-16T10:26:13.253Z,22.50
2023-03-16T10:28:46.974Z,21.10
2023-03-16T10:31:25.204Z,20.00
2023-03-16T10:33:59.284Z,20.70
2023-03-16T10:36:33.849Z,21.40
2023-03-16T10:39:09.026Z,25.10
2023-03-16T10:41:43.785Z,23.90
2023-03-16T10:44:17.512Z,21.10
2023-03-16T10:46:53.714Z,23.10
2023-03-16T10:49:28.550Z,22.10
2023-03-16T10:52:01.945Z,23.60
2023-03-16T10:54:35.906Z,23.40
2023-03-16T10:57:21.078Z,24.50
2023-03-16T10:59:54.487Z,23.60
2023-03-16T11:02:32.252Z,26.50
2023-03-16T11:05:17.514Z,24.80
2023-03-16T11:07:57.762Z,22.50
2023-03-16T11:10:36.103Z,21.60
2023-03-16T11:13:17.924Z,21.60
2023-03-16T11:15:56.082Z,26.70
2023-03-16T11:18:34.101Z,27.90
2023-03-16T11:21:10.457Z,32.90
2023-03-16T11:23:48.664Z,32.30
2023-03-16T11:26:27.976Z,30.70
2023-03-16T11:29:09.549Z,28.50
2023-03-16T11:31:46.334Z,29.80
2023-03-16T11:34:20.170Z,27.60
2023-03-16T11:36:55.626Z,27.20
2023-03-16T11:39:40.711Z,28.40
2023-03-16T11:42:30.047Z,24.70
2023-03-16T11:45:13.736Z,22.10
2023-03-16T11:48:31.194Z,24.50
2023-03-16T11:51:08.743Z,22.50
2023-03-16T11:53:58.026Z,21.20
2023-03-16T11:56:35.384Z,21.10
2023-03-16T11:59:25.260Z,19.30
2023-03-16T12:02:03.199Z,14.80
2023-03-16T12:04:46.819Z,14.00
2023-03-16T12:07:30.238Z,12.00
2023-03-16T12:10:11.141Z,10.80
2023-03-16T12:12:53.588Z,9.90
2023-03-16T12:15:36.759Z,11.30
2023-03-16T12:18:13.954Z,10.10
2023-03-16T12:20:52.225Z,10.30
2023-03-16T12:23:33.395Z,11.10
2023-03-16T12:26:06.577Z,9.20
2023-03-16T12:28:39.590Z,10.00
2023-03-16T12:31:14.369Z,10.10
2023-03-16T12:33:59.503Z,10.20
2023-03-16T12:36:57.995Z,9.50
2023-03-16T12:39:43.260Z,10.50
2023-03-16T12:42:26.945Z,11.60
2023-03-16T12:45:02.461Z,9.90
2023-03-16T12:47:38.757Z,9.30
2023-03-16T12:50:13.910Z,10.80
2023-03-16T12:52:50.407Z,10.50
2023-03-16T12:55:28.468Z,9.90
2023-03-16T12:58:07.761Z,11.30
2023-03-16T13:00:42.868Z,9.70
2023-03-16T13:03:17.446Z,11.70
2023-03-16T13:05:54.711Z,11.90
2023-03-16T13:08:28.023Z,10.60
2023-03-16T13:11:06.396Z,12.60
2023-03-16T13:13:51.078Z,11.00
2023-03-16T13:16:29.705Z,12.00
2023-03-16T13:19:03.590Z,10.60
2023-03-16T13:21:40.438Z,10.70
2023-03-16T13:24:28.689Z,10.50
2023-03-16T13:27:03.905Z,10.80
2023-03-16T13:29:39.031Z,11.20
2023-03-16T13:32:19.292Z,10.30
2023-03-16T13:34:53.332Z,11.10
2023-03-16T13:37:28.094Z,10.60
2023-03-16T13:40:04.904Z,12.70
2023-03-16T13:42:39.915Z,14.10
2023-03-16T13:45:15.946Z,13.20
2023-03-16T13:47:49.368Z,12.90
2023-03-16T13:50:23.960Z,13.50
2023-03-16T13:53:01.724Z,13.30
2023-03-16T13:58:20.761Z,14.90
2023-03-16T14:01:00.626Z,17.50
2023-03-16T14:03:54.092Z,16.40
2023-03-16T14:06:29.173Z,14.20
2023-03-16T14:09:04.206Z,14.10
2023-03-16T14:11:37.351Z,15.30
2023-03-16T14:14:19.510Z,15.60
2023-03-16T14:16:52.673Z,17.00
2023-03-16T14:19:32.543Z,15.80
2023-03-16T14:22:06.811Z,16.50
2023-03-16T14:24:41.490Z,17.30
2023-03-16T14:27:27.622Z,16.50
2023-03-16T14:30:02.957Z,17.50
2023-03-16T14:32:38.545Z,15.70
2023-03-16T14:35:17.287Z,18.70
2023-03-16T14:37:50.634Z,18.30
2023-03-16T14:40:27.462Z,18.00
2023-03-16T14:43:02.686Z,17.20
2023-03-16T14:45:38.248Z,16.60
2023-03-16T14:48:17.272Z,17.60
2023-03-16T14:50:51.055Z,14.40
2023-03-16T14:53:24.906Z,15.00
2023-03-16T14:55:58.072Z,13.50
2023-03-16T14:58:35.178Z,17.20
2023-03-16T15:01:08.303Z,16.80
2023-03-16T15:03:43.004Z,20.10
2023-03-16T15:06:17.614Z,19.50
2023-03-16T15:08:51.341Z,18.30
2023-03-16T15:11:32.011Z,18.00
2023-03-16T15:14:15.204Z,17.30
2023-03-16T15:16:48.949Z,19.20
2023-03-16T15:19:22.212Z,18.70
2023-03-16T15:21:56.249Z,18.10
2023-03-16T15:24:32.572Z,18.00
2023-03-16T15:27:05.584Z,17.80
2023-03-16T15:29:38.428Z,17.40
2023-03-16T15:32:14.651Z,16.50
2023-03-16T15:34:48.080Z,18.50
2023-03-16T15:37:23.469Z,19.20
2023-03-16T15:39:56.535Z,20.00
2023-03-16T15:42:29.158Z,19.20
2023-03-16T15:45:02.326Z,21.60
2023-03-16T15:47:35.934Z,23.70
2023-03-16T15:50:11.536Z,23.50
2023-03-16T15:52:44.772Z,24.00
2023-03-16T15:55:24.887Z,23.80
2023-03-16T15:58:00.173Z,25.20
2023-03-16T16:00:35.381Z,27.10
2023-03-16T16:03:12.427Z,28.30
2023-03-16T16:05:45.358Z,29.00
2023-03-16T16:08:18.861Z,29.50
2023-03-16T16:10:53.719Z,29.00
2023-03-16T16:13:43.133Z,29.20
2023-03-16T16:16:21.593Z,29.20
2023-03-16T16:18:55.047Z,29.80
2023-03-16T16:21:31.644Z,29.20
2023-03-16T16:24:04.813Z,30.70
2023-03-16T16:26:49.086Z,30.90
2023-03-16T16:29:25.143Z,31.80
2023-03-16T16:31:58.112Z,35.60
2023-03-16T16:34:36.327Z,36.20
2023-03-16T16:37:09.921Z,33.90
2023-03-16T16:39:42.678Z,34.00
2023-03-16T16:42:19.251Z,35.60
2023-03-16T16:44:52.166Z,35.90
2023-03-16T16:47:25.082Z,32.60
2023-03-16T16:49:58.312Z,29.90
2023-03-16T16:52:34.773Z,31.10
2023-03-16T16:55:08.812Z,28.10
2023-03-16T16:57:41.423Z,30.10
2023-03-16T17:00:21.490Z,27.70
2023-03-16T17:02:57.705Z,27.80
2023-03-16T17:05:31.889Z,28.90
2023-03-16T17:08:10.227Z,28.10
2023-03-16T17:10:44.209Z,28.90
2023-03-16T17:13:25.960Z,29.70
2023-03-16T17:15:59.009Z,29.90
2023-03-16T17:18:32.054Z,31.40
2023-03-16T17:21:06.560Z,31.80
2023-03-16T17:23:43.456Z,28.80
2023-03-16T17:26:18.383Z,31.40
2023-03-16T17:28:53.274Z,29.30
2023-03-16T17:31:27.296Z,28.70
2023-03-16T17:34:02.608Z,31.20
2023-03-16T17:36:39.259Z,28.20
2023-03-16T17:39:16.330Z,28.70
2023-03-16T17:41:49.215Z,30.60
2023-03-16T17:44:22.031Z,28.40
2023-03-16T17:46:55.894Z,30.70
2023-03-16T17:49:32.988Z,29.70
2023-03-16T17:52:11.037Z,26.80
2023-03-16T17:54:43.900Z,30.00
2023-03-16T17:57:20.495Z,28.90
2023-03-16T17:59:53.159Z,29.30
2023-03-16T18:02:37.875Z,30.90
2023-03-16T18:05:25.221Z,28.90
2023-03-16T18:08:00.150Z,31.30
2023-03-16T18:10:54.132Z,27.70
2023-03-16T18:13:35.275Z,25.20
2023-03-16T18:16:14.689Z,28.20
2023-03-16T18:18:48.002Z,27.20
2023-03-16T18:21:23.617Z,28.10
2023-03-16T18:23:57.262Z,31.00
2023-03-16T18:26:35.731Z,31.60
2023-03-16T18:29:09.408Z,30.40
2023-03-16T18:31:42.670Z,32.80
2023-03-16T18:34:20.061Z,27.40
2023-03-16T18:36:53.219Z,33.30
2023-03-16T18:39:27.991Z,34.70
2023-03-16T18:42:03.998Z,32.80
2023-03-16T18:44:36.938Z,33.00
2023-03-16T18:47:11.985Z,28.70
2023-03-16T18:49:49.051Z,29.00
2023-03-16T18:52:23.989Z,27.30
2023-03-16T18:54:58.520Z,24.30
2023-03-16T18:57:32.648Z,24.20
2023-03-16T19:00:05.974Z,25.20
2023-03-16T19:02:40.244Z,20.40
2023-03-16T19:05:15.568Z,19.80
2023-03-16T19:07:50.107Z,16.90
2023-03-16T19:10:30.496Z,16.30
2023-03-16T19:13:03.373Z,15.80
2023-03-16T19:15:36.236Z,16.20
2023-03-16T19:18:10.673Z,15.70
2023-03-16T19:20:45.315Z,16.00
2023-03-16T19:23:23.218Z,16.40
2023-03-16T19:25:56.668Z,16.60
2023-03-16T19:28:34.258Z,16.90
2023-03-16T19:31:09.042Z,17.00
2023-03-16T19:33:42.552Z,16.70
2023-03-16T19:36:19.513Z,18.90
2023-03-16T19:38:53.966Z,21.20
2023-03-16T19:41:29.365Z,16.90
2023-03-16T19:44:05.240Z,18.70
2023-03-16T19:46:38.115Z,16.80
2023-03-16T19:49:15.721Z,16.10
2023-03-16T19:51:48.601Z,18.20
2023-03-16T19:54:26.001Z,18.90
2023-03-16T19:56:59.543Z,19.10
2023-03-16T19:59:34.431Z,18.80
2023-03-16T20:02:18.507Z,17.50
2023-03-16T20:04:52.245Z,17.80
2023-03-16T20:07:25.268Z,18.60
2023-03-16T20:09:58.886Z,20.50
2023-03-16T20:12:33.848Z,20.20
2023-03-16T20:15:07.737Z,17.60
2023-03-16T20:17:43.404Z,19.40
2023-03-16T20:20:27.598Z,20.20
2023-03-16T20:23:01.717Z,19.20
2023-03-16T20:25:36.615Z,18.60
2023-03-16T20:28:15.371Z,19.80
2023-03-16T20:30:48.762Z,19.10
2023-03-16T21:10:08.025Z,19.40
2023-03-16T21:12:43.553Z,23.00
2023-03-16T21:15:21.515Z,21.20
2023-03-16T21:18:02.510Z,20.00
2023-03-16T21:20:37.084Z,20.10
2023-03-16T21:23:17.343Z,19.70
2023-03-16T21:25:51.977Z,21.40
2023-03-16T21:28:25.075Z,22.10
2023-03-16T21:31:05.845Z,21.90
2023-03-16T21:33:39.349Z,24.40
2023-03-16T21:36:16.037Z,24.30
2023-03-16T21:38:50.385Z,22.70
2023-03-16T21:41:24.075Z,24.40
2023-03-16T21:43:57.006Z,26.00
2023-03-16T21:46:30.713Z,25.90
2023-03-16T21:49:05.237Z,27.50
2023-03-16T21:51:38.472Z,26.50
2023-03-16T21:54:15.606Z,22.10
2023-03-16T21:56:50.542Z,26.10
2023-03-16T21:59:23.937Z,29.20
2023-03-16T22:02:02.062Z,29.80
2023-03-16T22:04:37.441Z,26.30
2023-03-16T22:07:14.197Z,38.30
2023-03-16T22:09:47.535Z,29.80
2023-03-16T22:12:20.320Z,34.10
2023-03-16T22:14:54.398Z,30.90
2023-03-16T22:17:29.011Z,32.50
2023-03-16T22:20:02.334Z,35.10
2023-03-16T22:22:35.571Z,35.70
2023-03-16T22:25:16.199Z,36.40
2023-03-16T22:27:49.104Z,38.20
2023-03-16T22:30:23.679Z,41.60
2023-03-16T22:32:58.278Z,35.30
2023-03-16T22:35:36.346Z,40.60
2023-03-16T22:38:11.406Z,38.30
2023-03-16T22:40:44.420Z,40.10
2023-03-16T22:43:20.156Z,40.90
2023-03-16T22:45:56.746Z,41.90
2023-03-16T22:48:32.267Z,40.70
2023-03-16T22:51:06.391Z,38.10
2023-03-16T22:53:41.555Z,45.40
2023-03-16T22:56:14.395Z,41.60
2023-03-16T22:58:48.835Z,41.30
2023-03-16T23:01:24.157Z,41.30
2023-03-16T23:03:57.654Z,38.90
2023-03-16T23:06:31.681Z,41.10
2023-03-16T23:09:05.336Z,40.40
2023-03-16T23:11:38.459Z,37.70
2023-03-16T23:14:15.216Z,40.30
2023-03-16T23:16:48.184Z,37.20
2023-03-16T23:19:30.133Z,37.90
2023-03-16T23:22:05.172Z,36.70
2023-03-16T23:24:38.038Z,39.30
2023-03-16T23:27:17.862Z,36.10
2023-03-16T23:29:50.992Z,34.50
2023-03-16T23:32:23.731Z,33.60
2023-03-16T23:34:56.417Z,38.00
2023-03-16T23:37:30.294Z,37.70
2023-03-16T23:40:04.189Z,36.40
2023-03-16T23:42:37.342Z,39.30
2023-03-16T23:45:13.710Z,37.30
2023-03-16T23:47:46.868Z,36.20
2023-03-16T23:50:22.420Z,38.40
2023-03-16T23:52:55.348Z,33.30
2023-03-16T23:55:28.465Z,35.00
2023-03-16T23:58:01.951Z,35.40
